sensor_id;sensor_type;location;lat;lon;timestamp;temperature;humidity
15394;DHT22;7795;47.986;11.868;2022-08-26T00:01:20;22.40;74.80
15394;DHT22;7795;47.986;11.868;2022-08-26T00:03:46;22.40;74.90
15394;DHT22;7795;47.986;11.868;2022-08-26T00:06:14;22.40;74.90
15394;DHT22;7795;47.986;11.868;2022-08-26T00:08:41;22.40;75.00
15394;DHT22;7795;47.986;11.868;2022-08-26T00:11:08;22.40;74.90
15394;DHT22;7795;47.986;11.868;2022-08-26T00:13:34;22.40;75.30
15394;DHT22;7795;47.986;11.868;2022-08-26T00:16:01;22.40;74.80
15394;DHT22;7795;47.986;11.868;2022-08-26T00:18:27;22.40;74.70
15394;DHT22;7795;47.986;11.868;2022-08-26T00:20:52;22.40;74.70
15394;DHT22;7795;47.986;11.868;2022-08-26T00:23:20;22.30;74.70
15394;DHT22;7795;47.986;11.868;2022-08-26T00:25:46;22.40;74.80
15394;DHT22;7795;47.986;11.868;2022-08-26T00:28:12;22.30;74.70
15394;DHT22;7795;47.986;11.868;2022-08-26T00:30:39;22.30;74.80
15394;DHT22;7795;47.986;11.868;2022-08-26T00:33:05;22.30;74.80
15394;DHT22;7795;47.986;11.868;2022-08-26T00:35:33;22.30;74.80
15394;DHT22;7795;47.986;11.868;2022-08-26T00:38:00;22.30;75.00
15394;DHT22;7795;47.986;11.868;2022-08-26T00:40:32;22.30;75.00
15394;DHT22;7795;47.986;11.868;2022-08-26T00:42:59;22.20;75.00
15394;DHT22;7795;47.986;11.868;2022-08-26T00:45:25;22.20;74.80
15394;DHT22;7795;47.986;11.868;2022-08-26T00:47:55;22.20;74.80
15394;DHT22;7795;47.986;11.868;2022-08-26T00:50:26;22.10;75.70
15394;DHT22;7795;47.986;11.868;2022-08-26T00:52:54;22.10;75.00
15394;DHT22;7795;47.986;11.868;2022-08-26T00:55:27;22.10;75.60
15394;DHT22;7795;47.986;11.868;2022-08-26T00:57:55;22.00;75.10
15394;DHT22;7795;47.986;11.868;2022-08-26T01:00:24;22.00;75.00
15394;DHT22;7795;47.986;11.868;2022-08-26T01:02:51;21.90;75.10
15394;DHT22;7795;47.986;11.868;2022-08-26T01:05:18;21.90;75.10
15394;DHT22;7795;47.986;11.868;2022-08-26T01:07:44;21.90;75.30
15394;DHT22;7795;47.986;11.868;2022-08-26T01:10:12;21.80;75.30
15394;DHT22;7795;47.986;11.868;2022-08-26T01:12:41;21.80;76.30
15394;DHT22;7795;47.986;11.868;2022-08-26T01:15:14;21.80;75.70
15394;DHT22;7795;47.986;11.868;2022-08-26T01:17:41;21.80;75.80
15394;DHT22;7795;47.986;11.868;2022-08-26T01:20:11;21.80;75.70
15394;DHT22;7795;47.986;11.868;2022-08-26T01:22:49;21.70;75.80
15394;DHT22;7795;47.986;11.868;2022-08-26T01:25:18;21.70;76.00
15394;DHT22;7795;47.986;11.868;2022-08-26T01:27:45;21.70;75.80
15394;DHT22;7795;47.986;11.868;2022-08-26T01:30:12;21.70;75.90
15394;DHT22;7795;47.986;11.868;2022-08-26T01:32:38;21.60;75.90
15394;DHT22;7795;47.986;11.868;2022-08-26T01:35:06;21.60;76.00
15394;DHT22;7795;47.986;11.868;2022-08-26T01:37:35;21.60;76.10
15394;DHT22;7795;47.986;11.868;2022-08-26T01:40:04;21.60;75.90
15394;DHT22;7795;47.986;11.868;2022-08-26T01:42:30;21.60;75.90
15394;DHT22;7795;47.986;11.868;2022-08-26T01:45:03;21.60;75.80
15394;DHT22;7795;47.986;11.868;2022-08-26T01:47:31;21.50;76.00
15394;DHT22;7795;47.986;11.868;2022-08-26T01:50:00;21.50;76.00
15394;DHT22;7795;47.986;11.868;2022-08-26T01:52:28;21.50;76.10
15394;DHT22;7795;47.986;11.868;2022-08-26T01:54:56;21.40;76.10
15394;DHT22;7795;47.986;11.868;2022-08-26T01:57:25;21.40;76.10
15394;DHT22;7795;47.986;11.868;2022-08-26T01:59:52;21.40;77.00
15394;DHT22;7795;47.986;11.868;2022-08-26T02:02:19;21.40;76.30
15394;DHT22;7795;47.986;11.868;2022-08-26T02:04:48;21.30;76.20
15394;DHT22;7795;47.986;11.868;2022-08-26T02:07:18;21.30;76.40
15394;DHT22;7795;47.986;11.868;2022-08-26T02:09:45;21.30;76.40
15394;DHT22;7795;47.986;11.868;2022-08-26T02:12:11;21.20;76.40
15394;DHT22;7795;47.986;11.868;2022-08-26T02:14:42;21.20;76.50
15394;DHT22;7795;47.986;11.868;2022-08-26T02:17:11;21.20;76.80
15394;DHT22;7795;47.986;11.868;2022-08-26T02:19:40;21.20;76.80
15394;DHT22;7795;47.986;11.868;2022-08-26T02:22:10;21.20;76.90
15394;DHT22;7795;47.986;11.868;2022-08-26T02:24:46;21.20;77.10
15394;DHT22;7795;47.986;11.868;2022-08-26T02:27:12;21.10;77.20
15394;DHT22;7795;47.986;11.868;2022-08-26T02:29:42;21.10;77.00
15394;DHT22;7795;47.986;11.868;2022-08-26T02:32:09;21.10;77.10
15394;DHT22;7795;47.986;11.868;2022-08-26T02:34:35;21.00;77.10
15394;DHT22;7795;47.986;11.868;2022-08-26T02:37:05;21.00;77.20
15394;DHT22;7795;47.986;11.868;2022-08-26T02:39:32;21.00;77.40
15394;DHT22;7795;47.986;11.868;2022-08-26T02:41:58;21.00;77.40
15394;DHT22;7795;47.986;11.868;2022-08-26T02:44:25;21.00;77.20
15394;DHT22;7795;47.986;11.868;2022-08-26T02:46:52;21.00;77.40
15394;DHT22;7795;47.986;11.868;2022-08-26T02:49:19;20.90;77.40
15394;DHT22;7795;47.986;11.868;2022-08-26T02:51:45;20.90;77.30
15394;DHT22;7795;47.986;11.868;2022-08-26T02:54:11;20.90;77.40
15394;DHT22;7795;47.986;11.868;2022-08-26T02:56:38;20.90;77.50
15394;DHT22;7795;47.986;11.868;2022-08-26T02:59:04;20.90;77.50
15394;DHT22;7795;47.986;11.868;2022-08-26T03:01:31;20.90;77.50
15394;DHT22;7795;47.986;11.868;2022-08-26T03:03:59;20.80;77.60
15394;DHT22;7795;47.986;11.868;2022-08-26T03:06:26;20.80;77.60
15394;DHT22;7795;47.986;11.868;2022-08-26T03:08:52;20.80;77.60
15394;DHT22;7795;47.986;11.868;2022-08-26T03:11:18;20.80;78.40
15394;DHT22;7795;47.986;11.868;2022-08-26T03:13:44;20.80;77.70
15394;DHT22;7795;47.986;11.868;2022-08-26T03:16:10;20.80;77.80
15394;DHT22;7795;47.986;11.868;2022-08-26T03:18:36;20.70;77.80
15394;DHT22;7795;47.986;11.868;2022-08-26T03:21:06;20.70;77.80
15394;DHT22;7795;47.986;11.868;2022-08-26T03:23:32;20.70;78.00
15394;DHT22;7795;47.986;11.868;2022-08-26T03:25:58;20.70;77.80
15394;DHT22;7795;47.986;11.868;2022-08-26T03:28:24;20.70;77.90
15394;DHT22;7795;47.986;11.868;2022-08-26T03:30:50;20.60;78.00
15394;DHT22;7795;47.986;11.868;2022-08-26T03:33:16;20.60;78.10
15394;DHT22;7795;47.986;11.868;2022-08-26T03:35:43;20.60;78.10
15394;DHT22;7795;47.986;11.868;2022-08-26T03:38:11;20.60;78.20
15394;DHT22;7795;47.986;11.868;2022-08-26T03:40:37;20.60;78.30
15394;DHT22;7795;47.986;11.868;2022-08-26T03:43:05;20.60;78.20
15394;DHT22;7795;47.986;11.868;2022-08-26T03:45:31;20.60;78.30
15394;DHT22;7795;47.986;11.868;2022-08-26T03:47:57;20.60;78.20
15394;DHT22;7795;47.986;11.868;2022-08-26T03:50:24;20.60;78.20
15394;DHT22;7795;47.986;11.868;2022-08-26T03:52:52;20.60;78.30
15394;DHT22;7795;47.986;11.868;2022-08-26T03:55:22;20.60;78.10
15394;DHT22;7795;47.986;11.868;2022-08-26T03:57:48;20.50;78.10
15394;DHT22;7795;47.986;11.868;2022-08-26T04:00:15;20.50;77.90
15394;DHT22;7795;47.986;11.868;2022-08-26T04:02:42;20.50;77.90
15394;DHT22;7795;47.986;11.868;2022-08-26T04:05:10;20.50;77.80
15394;DHT22;7795;47.986;11.868;2022-08-26T04:07:36;20.50;77.90
15394;DHT22;7795;47.986;11.868;2022-08-26T04:10:03;20.50;77.90
15394;DHT22;7795;47.986;11.868;2022-08-26T04:12:30;20.40;77.90
15394;DHT22;7795;47.986;11.868;2022-08-26T04:14:56;20.40;77.90
15394;DHT22;7795;47.986;11.868;2022-08-26T04:17:22;20.40;77.90
15394;DHT22;7795;47.986;11.868;2022-08-26T04:19:51;20.40;77.90
15394;DHT22;7795;47.986;11.868;2022-08-26T04:22:17;20.40;77.90
15394;DHT22;7795;47.986;11.868;2022-08-26T04:24:43;20.40;78.80
15394;DHT22;7795;47.986;11.868;2022-08-26T04:27:09;20.40;78.00
15394;DHT22;7795;47.986;11.868;2022-08-26T04:29:37;20.30;77.90
15394;DHT22;7795;47.986;11.868;2022-08-26T04:32:07;20.30;78.00
15394;DHT22;7795;47.986;11.868;2022-08-26T04:34:33;20.30;78.00
15394;DHT22;7795;47.986;11.868;2022-08-26T04:36:59;20.30;78.00
15394;DHT22;7795;47.986;11.868;2022-08-26T04:39:26;20.30;78.10
15394;DHT22;7795;47.986;11.868;2022-08-26T04:41:52;20.30;78.10
15394;DHT22;7795;47.986;11.868;2022-08-26T04:44:19;20.30;78.20
15394;DHT22;7795;47.986;11.868;2022-08-26T04:46:47;20.30;78.20
15394;DHT22;7795;47.986;11.868;2022-08-26T04:49:12;20.30;78.20
15394;DHT22;7795;47.986;11.868;2022-08-26T04:51:39;20.20;78.20
15394;DHT22;7795;47.986;11.868;2022-08-26T04:54:05;20.20;78.30
15394;DHT22;7795;47.986;11.868;2022-08-26T04:56:34;20.20;78.30
15394;DHT22;7795;47.986;11.868;2022-08-26T04:59:02;20.20;78.40
15394;DHT22;7795;47.986;11.868;2022-08-26T05:01:28;20.20;78.40
15394;DHT22;7795;47.986;11.868;2022-08-26T05:03:57;20.20;78.50
15394;DHT22;7795;47.986;11.868;2022-08-26T05:06:23;20.20;78.70
15394;DHT22;7795;47.986;11.868;2022-08-26T05:08:49;20.20;78.70
15394;DHT22;7795;47.986;11.868;2022-08-26T05:11:15;20.20;78.70
15394;DHT22;7795;47.986;11.868;2022-08-26T05:13:41;20.20;78.80
15394;DHT22;7795;47.986;11.868;2022-08-26T05:16:10;20.20;78.90
15394;DHT22;7795;47.986;11.868;2022-08-26T05:18:37;20.20;79.10
15394;DHT22;7795;47.986;11.868;2022-08-26T05:21:05;20.20;79.10
15394;DHT22;7795;47.986;11.868;2022-08-26T05:23:34;20.30;79.20
15394;DHT22;7795;47.986;11.868;2022-08-26T05:26:00;20.30;79.10
15394;DHT22;7795;47.986;11.868;2022-08-26T05:28:26;20.30;79.10
15394;DHT22;7795;47.986;11.868;2022-08-26T05:30:54;20.30;79.10
15394;DHT22;7795;47.986;11.868;2022-08-26T05:33:20;20.30;79.00
15394;DHT22;7795;47.986;11.868;2022-08-26T05:35:46;20.40;79.00
15394;DHT22;7795;47.986;11.868;2022-08-26T05:38:15;20.40;78.90
15394;DHT22;7795;47.986;11.868;2022-08-26T05:40:43;20.40;78.90
15394;DHT22;7795;47.986;11.868;2022-08-26T05:43:09;20.50;79.00
15394;DHT22;7795;47.986;11.868;2022-08-26T05:45:36;20.50;79.00
15394;DHT22;7795;47.986;11.868;2022-08-26T05:48:06;20.50;78.90
15394;DHT22;7795;47.986;11.868;2022-08-26T05:50:36;20.50;78.80
15394;DHT22;7795;47.986;11.868;2022-08-26T05:53:01;20.60;78.90
15394;DHT22;7795;47.986;11.868;2022-08-26T05:55:28;20.60;79.00
15394;DHT22;7795;47.986;11.868;2022-08-26T05:57:54;20.60;79.20
15394;DHT22;7795;47.986;11.868;2022-08-26T06:00:20;20.70;79.20
15394;DHT22;7795;47.986;11.868;2022-08-26T06:02:46;20.70;79.20
15394;DHT22;7795;47.986;11.868;2022-08-26T06:05:12;20.80;79.30
15394;DHT22;7795;47.986;11.868;2022-08-26T06:07:38;20.90;79.30
15394;DHT22;7795;47.986;11.868;2022-08-26T06:10:22;20.90;79.30
15394;DHT22;7795;47.986;11.868;2022-08-26T06:12:49;21.00;79.20
15394;DHT22;7795;47.986;11.868;2022-08-26T06:15:15;21.10;79.40
15394;DHT22;7795;47.986;11.868;2022-08-26T06:17:41;21.20;79.30
15394;DHT22;7795;47.986;11.868;2022-08-26T06:20:08;21.30;79.20
15394;DHT22;7795;47.986;11.868;2022-08-26T06:22:34;21.40;79.20
15394;DHT22;7795;47.986;11.868;2022-08-26T06:25:18;21.50;79.90
15394;DHT22;7795;47.986;11.868;2022-08-26T06:28:07;21.60;79.20
15394;DHT22;7795;47.986;11.868;2022-08-26T06:30:33;21.70;79.20
15394;DHT22;7795;47.986;11.868;2022-08-26T06:33:03;21.80;79.00
15394;DHT22;7795;47.986;11.868;2022-08-26T06:35:28;21.90;78.90
15394;DHT22;7795;47.986;11.868;2022-08-26T06:37:54;22.00;78.70
15394;DHT22;7795;47.986;11.868;2022-08-26T06:40:20;22.10;78.60
15394;DHT22;7795;47.986;11.868;2022-08-26T06:42:47;22.20;78.30
15394;DHT22;7795;47.986;11.868;2022-08-26T06:45:14;22.20;78.20
15394;DHT22;7795;47.986;11.868;2022-08-26T06:47:39;22.40;78.80
15394;DHT22;7795;47.986;11.868;2022-08-26T06:50:06;22.50;78.00
15394;DHT22;7795;47.986;11.868;2022-08-26T06:52:32;22.50;78.00
15394;DHT22;7795;47.986;11.868;2022-08-26T06:54:58;22.60;78.20
15394;DHT22;7795;47.986;11.868;2022-08-26T06:57:23;22.70;77.40
15394;DHT22;7795;47.986;11.868;2022-08-26T06:59:49;22.80;78.10
15394;DHT22;7795;47.986;11.868;2022-08-26T07:02:16;22.80;77.90
15394;DHT22;7795;47.986;11.868;2022-08-26T07:04:42;22.90;77.70
15394;DHT22;7795;47.986;11.868;2022-08-26T07:07:12;23.00;77.60
15394;DHT22;7795;47.986;11.868;2022-08-26T07:09:38;23.00;77.60
15394;DHT22;7795;47.986;11.868;2022-08-26T07:12:04;23.10;77.40
15394;DHT22;7795;47.986;11.868;2022-08-26T07:14:29;23.10;77.00
15394;DHT22;7795;47.986;11.868;2022-08-26T07:16:56;23.20;76.80
15394;DHT22;7795;47.986;11.868;2022-08-26T07:19:24;23.30;76.60
15394;DHT22;7795;47.986;11.868;2022-08-26T07:21:49;23.30;76.50
15394;DHT22;7795;47.986;11.868;2022-08-26T07:24:15;23.40;76.20
15394;DHT22;7795;47.986;11.868;2022-08-26T07:26:41;23.50;76.20
15394;DHT22;7795;47.986;11.868;2022-08-26T07:29:07;23.60;75.90
15394;DHT22;7795;47.986;11.868;2022-08-26T07:31:33;23.60;75.80
15394;DHT22;7795;47.986;11.868;2022-08-26T07:34:02;23.70;75.80
15394;DHT22;7795;47.986;11.868;2022-08-26T07:36:30;23.80;75.80
15394;DHT22;7795;47.986;11.868;2022-08-26T07:38:55;23.80;75.60
15394;DHT22;7795;47.986;11.868;2022-08-26T07:41:23;23.90;75.60
15394;DHT22;7795;47.986;11.868;2022-08-26T07:43:49;24.00;75.60
15394;DHT22;7795;47.986;11.868;2022-08-26T07:46:15;24.00;75.60
15394;DHT22;7795;47.986;11.868;2022-08-26T07:48:44;24.10;75.40
15394;DHT22;7795;47.986;11.868;2022-08-26T07:51:10;24.20;75.30
15394;DHT22;7795;47.986;11.868;2022-08-26T07:53:38;24.30;75.30
15394;DHT22;7795;47.986;11.868;2022-08-26T07:56:04;24.30;75.10
15394;DHT22;7795;47.986;11.868;2022-08-26T07:58:30;24.40;75.00
15394;DHT22;7795;47.986;11.868;2022-08-26T08:00:56;24.50;75.00
15394;DHT22;7795;47.986;11.868;2022-08-26T08:03:22;24.60;74.80
15394;DHT22;7795;47.986;11.868;2022-08-26T08:05:48;24.70;74.80
15394;DHT22;7795;47.986;11.868;2022-08-26T08:08:14;24.80;74.80
15394;DHT22;7795;47.986;11.868;2022-08-26T08:10:41;24.90;74.30
15394;DHT22;7795;47.986;11.868;2022-08-26T08:13:10;25.00;73.70
15394;DHT22;7795;47.986;11.868;2022-08-26T08:15:36;25.00;73.50
15394;DHT22;7795;47.986;11.868;2022-08-26T08:18:03;25.10;73.40
15394;DHT22;7795;47.986;11.868;2022-08-26T08:20:29;25.20;72.60
15394;DHT22;7795;47.986;11.868;2022-08-26T08:22:55;25.30;72.00
15394;DHT22;7795;47.986;11.868;2022-08-26T08:25:22;25.40;71.30
15394;DHT22;7795;47.986;11.868;2022-08-26T08:27:49;25.50;71.10
15394;DHT22;7795;47.986;11.868;2022-08-26T08:30:18;25.60;70.20
15394;DHT22;7795;47.986;11.868;2022-08-26T08:32:44;25.60;70.20
15394;DHT22;7795;47.986;11.868;2022-08-26T08:35:11;25.70;70.10
15394;DHT22;7795;47.986;11.868;2022-08-26T08:37:38;25.80;69.80
15394;DHT22;7795;47.986;11.868;2022-08-26T08:40:04;25.90;69.70
15394;DHT22;7795;47.986;11.868;2022-08-26T08:42:37;25.90;69.20
15394;DHT22;7795;47.986;11.868;2022-08-26T08:45:12;26.00;68.70
15394;DHT22;7795;47.986;11.868;2022-08-26T08:47:41;26.10;68.40
15394;DHT22;7795;47.986;11.868;2022-08-26T08:50:19;26.20;68.50
15394;DHT22;7795;47.986;11.868;2022-08-26T08:52:49;26.30;67.40
15394;DHT22;7795;47.986;11.868;2022-08-26T08:55:16;26.40;67.90
15394;DHT22;7795;47.986;11.868;2022-08-26T08:57:51;26.50;67.90
15394;DHT22;7795;47.986;11.868;2022-08-26T09:00:21;26.60;66.90
15394;DHT22;7795;47.986;11.868;2022-08-26T09:02:52;26.70;66.80
15394;DHT22;7795;47.986;11.868;2022-08-26T09:05:20;26.80;66.40
15394;DHT22;7795;47.986;11.868;2022-08-26T09:07:49;26.90;66.30
15394;DHT22;7795;47.986;11.868;2022-08-26T09:10:28;26.90;66.40
15394;DHT22;7795;47.986;11.868;2022-08-26T09:12:55;27.10;65.20
15394;DHT22;7795;47.986;11.868;2022-08-26T09:15:25;27.10;65.60
15394;DHT22;7795;47.986;11.868;2022-08-26T09:17:55;27.30;65.30
15394;DHT22;7795;47.986;11.868;2022-08-26T09:20:35;27.40;65.30
15394;DHT22;7795;47.986;11.868;2022-08-26T09:23:05;27.50;64.90
15394;DHT22;7795;47.986;11.868;2022-08-26T09:25:31;27.60;65.20
15394;DHT22;7795;47.986;11.868;2022-08-26T09:27:57;27.70;64.60
15394;DHT22;7795;47.986;11.868;2022-08-26T09:30:27;27.80;64.00
15394;DHT22;7795;47.986;11.868;2022-08-26T09:32:58;27.90;63.40
15394;DHT22;7795;47.986;11.868;2022-08-26T09:35:27;27.90;62.80
15394;DHT22;7795;47.986;11.868;2022-08-26T09:37:54;28.00;63.10
15394;DHT22;7795;47.986;11.868;2022-08-26T09:40:29;28.10;63.30
15394;DHT22;7795;47.986;11.868;2022-08-26T09:43:11;28.20;62.20
15394;DHT22;7795;47.986;11.868;2022-08-26T09:45:41;28.30;62.00
15394;DHT22;7795;47.986;11.868;2022-08-26T09:48:08;28.40;62.70
15394;DHT22;7795;47.986;11.868;2022-08-26T09:50:36;28.60;62.80
15394;DHT22;7795;47.986;11.868;2022-08-26T09:53:06;28.70;62.30
15394;DHT22;7795;47.986;11.868;2022-08-26T09:55:32;28.80;62.00
15394;DHT22;7795;47.986;11.868;2022-08-26T09:57:59;28.80;61.90
15394;DHT22;7795;47.986;11.868;2022-08-26T10:00:29;28.90;61.30
15394;DHT22;7795;47.986;11.868;2022-08-26T10:02:57;29.00;61.40
15394;DHT22;7795;47.986;11.868;2022-08-26T10:05:30;29.10;61.80
15394;DHT22;7795;47.986;11.868;2022-08-26T10:07:57;29.20;61.20
15394;DHT22;7795;47.986;11.868;2022-08-26T10:10:26;29.30;61.80
15394;DHT22;7795;47.986;11.868;2022-08-26T10:13:00;29.40;60.90
15394;DHT22;7795;47.986;11.868;2022-08-26T10:15:31;29.40;60.20
15394;DHT22;7795;47.986;11.868;2022-08-26T10:18:07;29.50;60.10
15394;DHT22;7795;47.986;11.868;2022-08-26T10:20:36;29.60;58.90
15394;DHT22;7795;47.986;11.868;2022-08-26T10:23:05;29.60;59.50
15394;DHT22;7795;47.986;11.868;2022-08-26T10:25:36;29.70;59.20
15394;DHT22;7795;47.986;11.868;2022-08-26T10:28:08;29.80;58.90
15394;DHT22;7795;47.986;11.868;2022-08-26T10:30:39;29.90;58.80
15394;DHT22;7795;47.986;11.868;2022-08-26T10:33:10;29.90;58.40
15394;DHT22;7795;47.986;11.868;2022-08-26T10:35:43;30.00;58.40
15394;DHT22;7795;47.986;11.868;2022-08-26T10:38:16;30.10;58.80
15394;DHT22;7795;47.986;11.868;2022-08-26T10:40:49;30.10;58.10
15394;DHT22;7795;47.986;11.868;2022-08-26T10:43:20;30.20;58.20
15394;DHT22;7795;47.986;11.868;2022-08-26T10:45:51;30.20;58.20
15394;DHT22;7795;47.986;11.868;2022-08-26T10:48:23;30.30;58.40
15394;DHT22;7795;47.986;11.868;2022-08-26T10:50:50;30.40;57.50
15394;DHT22;7795;47.986;11.868;2022-08-26T10:53:19;30.40;58.00
15394;DHT22;7795;47.986;11.868;2022-08-26T10:55:54;30.50;57.60
15394;DHT22;7795;47.986;11.868;2022-08-26T10:58:30;30.50;57.20
15394;DHT22;7795;47.986;11.868;2022-08-26T11:01:07;30.50;57.30
15394;DHT22;7795;47.986;11.868;2022-08-26T11:03:57;30.60;57.50
15394;DHT22;7795;47.986;11.868;2022-08-26T11:06:26;30.60;57.20
15394;DHT22;7795;47.986;11.868;2022-08-26T11:08:54;30.70;57.40
15394;DHT22;7795;47.986;11.868;2022-08-26T11:11:47;30.70;57.10
15394;DHT22;7795;47.986;11.868;2022-08-26T11:14:35;30.70;56.70
15394;DHT22;7795;47.986;11.868;2022-08-26T11:17:02;30.70;56.20
15394;DHT22;7795;47.986;11.868;2022-08-26T11:19:58;30.70;56.90
15394;DHT22;7795;47.986;11.868;2022-08-26T11:22:25;30.70;56.30
15394;DHT22;7795;47.986;11.868;2022-08-26T11:25:10;30.70;57.90
15394;DHT22;7795;47.986;11.868;2022-08-26T11:28:00;30.70;56.40
15394;DHT22;7795;47.986;11.868;2022-08-26T11:30:47;30.70;56.60
15394;DHT22;7795;47.986;11.868;2022-08-26T11:33:43;30.60;56.30
15394;DHT22;7795;47.986;11.868;2022-08-26T11:36:28;30.60;56.30
15394;DHT22;7795;47.986;11.868;2022-08-26T11:38:57;30.60;56.20
15394;DHT22;7795;47.986;11.868;2022-08-26T11:41:23;30.70;56.70
15394;DHT22;7795;47.986;11.868;2022-08-26T11:43:54;30.60;56.50
15394;DHT22;7795;47.986;11.868;2022-08-26T11:46:24;30.60;56.70
15394;DHT22;7795;47.986;11.868;2022-08-26T11:48:50;30.60;56.50
15394;DHT22;7795;47.986;11.868;2022-08-26T11:51:22;30.70;56.80
15394;DHT22;7795;47.986;11.868;2022-08-26T11:53:49;30.70;55.90
15394;DHT22;7795;47.986;11.868;2022-08-26T11:56:20;30.80;56.20
15394;DHT22;7795;47.986;11.868;2022-08-26T11:58:50;30.80;55.80
15394;DHT22;7795;47.986;11.868;2022-08-26T12:01:25;30.80;55.90
15394;DHT22;7795;47.986;11.868;2022-08-26T12:03:52;30.80;55.90
15394;DHT22;7795;47.986;11.868;2022-08-26T12:06:25;30.80;56.10
15394;DHT22;7795;47.986;11.868;2022-08-26T12:08:54;30.80;55.70
15394;DHT22;7795;47.986;11.868;2022-08-26T12:11:23;30.80;56.00
15394;DHT22;7795;47.986;11.868;2022-08-26T12:13:54;30.80;55.50
15394;DHT22;7795;47.986;11.868;2022-08-26T12:16:23;30.80;55.70
15394;DHT22;7795;47.986;11.868;2022-08-26T12:18:48;30.80;55.60
15394;DHT22;7795;47.986;11.868;2022-08-26T12:21:19;30.90;55.40
15394;DHT22;7795;47.986;11.868;2022-08-26T12:23:50;30.90;54.70
15394;DHT22;7795;47.986;11.868;2022-08-26T12:26:22;30.90;54.50
15394;DHT22;7795;47.986;11.868;2022-08-26T12:28:51;30.90;54.60
15394;DHT22;7795;47.986;11.868;2022-08-26T12:31:30;30.90;54.50
15394;DHT22;7795;47.986;11.868;2022-08-26T12:33:57;30.90;54.80
15394;DHT22;7795;47.986;11.868;2022-08-26T12:36:27;30.90;54.50
15394;DHT22;7795;47.986;11.868;2022-08-26T12:38:55;30.90;54.40
15394;DHT22;7795;47.986;11.868;2022-08-26T12:41:52;30.90;53.90
15394;DHT22;7795;47.986;11.868;2022-08-26T12:44:42;30.90;53.50
15394;DHT22;7795;47.986;11.868;2022-08-26T12:47:11;30.90;53.20
15394;DHT22;7795;47.986;11.868;2022-08-26T12:49:42;30.90;53.50
15394;DHT22;7795;47.986;11.868;2022-08-26T12:52:21;30.90;53.70
15394;DHT22;7795;47.986;11.868;2022-08-26T12:54:57;30.90;53.00
15394;DHT22;7795;47.986;11.868;2022-08-26T12:57:25;30.90;53.40
15394;DHT22;7795;47.986;11.868;2022-08-26T12:59:52;30.80;53.80
15394;DHT22;7795;47.986;11.868;2022-08-26T13:02:33;30.90;53.90
15394;DHT22;7795;47.986;11.868;2022-08-26T13:04:59;30.80;53.10
15394;DHT22;7795;47.986;11.868;2022-08-26T13:07:26;30.80;53.50
15394;DHT22;7795;47.986;11.868;2022-08-26T13:09:54;30.80;53.30
15394;DHT22;7795;47.986;11.868;2022-08-26T13:12:30;30.70;53.30
15394;DHT22;7795;47.986;11.868;2022-08-26T13:14:57;30.70;52.90
15394;DHT22;7795;47.986;11.868;2022-08-26T13:17:23;30.70;53.30
15394;DHT22;7795;47.986;11.868;2022-08-26T13:19:50;30.70;53.00
15394;DHT22;7795;47.986;11.868;2022-08-26T13:22:17;30.70;53.00
15394;DHT22;7795;47.986;11.868;2022-08-26T13:24:44;30.60;52.80
15394;DHT22;7795;47.986;11.868;2022-08-26T13:27:13;30.70;53.00
15394;DHT22;7795;47.986;11.868;2022-08-26T13:29:40;30.70;52.50
15394;DHT22;7795;47.986;11.868;2022-08-26T13:32:07;30.70;52.60
15394;DHT22;7795;47.986;11.868;2022-08-26T13:34:34;30.70;52.80
15394;DHT22;7795;47.986;11.868;2022-08-26T13:37:01;30.70;52.70
15394;DHT22;7795;47.986;11.868;2022-08-26T13:39:27;30.70;52.90
15394;DHT22;7795;47.986;11.868;2022-08-26T13:41:53;30.70;52.70
15394;DHT22;7795;47.986;11.868;2022-08-26T13:44:19;30.70;52.60
15394;DHT22;7795;47.986;11.868;2022-08-26T13:46:47;30.70;52.50
15394;DHT22;7795;47.986;11.868;2022-08-26T13:49:13;30.80;52.50
15394;DHT22;7795;47.986;11.868;2022-08-26T13:51:39;30.80;52.40
15394;DHT22;7795;47.986;11.868;2022-08-26T13:54:06;30.80;52.20
15394;DHT22;7795;47.986;11.868;2022-08-26T13:56:33;30.80;51.80
15394;DHT22;7795;47.986;11.868;2022-08-26T13:58:59;30.90;51.60
15394;DHT22;7795;47.986;11.868;2022-08-26T14:01:26;30.90;51.60
15394;DHT22;7795;47.986;11.868;2022-08-26T14:03:54;30.90;51.60
15394;DHT22;7795;47.986;11.868;2022-08-26T14:06:20;30.90;51.60
15394;DHT22;7795;47.986;11.868;2022-08-26T14:08:47;31.00;52.10
15394;DHT22;7795;47.986;11.868;2022-08-26T14:11:13;31.00;51.70
15394;DHT22;7795;47.986;11.868;2022-08-26T14:13:39;30.90;51.70
15394;DHT22;7795;47.986;11.868;2022-08-26T14:16:08;30.90;52.10
15394;DHT22;7795;47.986;11.868;2022-08-26T14:18:37;30.90;52.10
15394;DHT22;7795;47.986;11.868;2022-08-26T14:21:07;30.90;52.20
15394;DHT22;7795;47.986;11.868;2022-08-26T14:23:35;30.90;51.60
15394;DHT22;7795;47.986;11.868;2022-08-26T14:26:01;30.90;52.00
15394;DHT22;7795;47.986;11.868;2022-08-26T14:28:32;30.90;52.40
15394;DHT22;7795;47.986;11.868;2022-08-26T14:30:58;30.90;51.50
15394;DHT22;7795;47.986;11.868;2022-08-26T14:33:26;30.90;51.40
15394;DHT22;7795;47.986;11.868;2022-08-26T14:35:53;30.90;51.50
15394;DHT22;7795;47.986;11.868;2022-08-26T14:38:40;30.90;51.60
15394;DHT22;7795;47.986;11.868;2022-08-26T14:41:06;31.00;52.00
15394;DHT22;7795;47.986;11.868;2022-08-26T14:43:32;30.90;52.10
15394;DHT22;7795;47.986;11.868;2022-08-26T14:45:58;31.00;52.20
15394;DHT22;7795;47.986;11.868;2022-08-26T14:48:24;31.00;52.00
15394;DHT22;7795;47.986;11.868;2022-08-26T14:50:50;31.00;52.00
15394;DHT22;7795;47.986;11.868;2022-08-26T14:53:15;30.90;51.90
15394;DHT22;7795;47.986;11.868;2022-08-26T14:56:02;30.90;51.60
15394;DHT22;7795;47.986;11.868;2022-08-26T14:58:28;31.00;51.90
15394;DHT22;7795;47.986;11.868;2022-08-26T15:00:53;30.90;51.70
15394;DHT22;7795;47.986;11.868;2022-08-26T15:03:19;30.90;51.90
15394;DHT22;7795;47.986;11.868;2022-08-26T15:05:46;30.90;52.20
15394;DHT22;7795;47.986;11.868;2022-08-26T15:08:12;30.80;51.90
15394;DHT22;7795;47.986;11.868;2022-08-26T15:10:38;30.80;52.10
15394;DHT22;7795;47.986;11.868;2022-08-26T15:13:05;30.80;51.90
15394;DHT22;7795;47.986;11.868;2022-08-26T15:15:31;30.70;52.00
15394;DHT22;7795;47.986;11.868;2022-08-26T15:17:56;30.70;52.00
15394;DHT22;7795;47.986;11.868;2022-08-26T15:20:22;30.70;52.20
15394;DHT22;7795;47.986;11.868;2022-08-26T15:22:48;30.60;52.10
15394;DHT22;7795;47.986;11.868;2022-08-26T15:25:14;30.60;51.50
15394;DHT22;7795;47.986;11.868;2022-08-26T15:27:40;30.50;51.50
15394;DHT22;7795;47.986;11.868;2022-08-26T15:30:09;30.60;51.50
15394;DHT22;7795;47.986;11.868;2022-08-26T15:32:36;30.50;51.40
15394;DHT22;7795;47.986;11.868;2022-08-26T15:35:02;30.50;51.70
15394;DHT22;7795;47.986;11.868;2022-08-26T15:37:28;30.50;51.50
15394;DHT22;7795;47.986;11.868;2022-08-26T15:39:54;30.50;51.50